^^
Meteo Knjazevac Station Historical Data
Daily Summary for September 8, 2021 Units:  Metric    English   Both
Daily Weekly Monthly Yearly Custom
  High: Low: Average:
Temperature: 32.2 °C 16.8 °C 21.2 °C
Dew Point: 24.3 °C 15.3 °C 18.5 °C
Humidity: 94% 63% 85%
Wind Speed: 9.7km/h 0km/h 1.9km/h
Wind Gust: 14.5km/h - -
Wind- - South
Pressure: 1022.6 hPa 1019.9 hPa -
Precipitation: 0 mm    
Historical Graphs
 
 
Tabular Data for September 8, 2021
Time Temperature Dew Point Pressure Wind Wind Speed Wind Gust Humidity Rainfall Rate (Hourly) solar Conditions
00:00 21 °C 18 °C 1019.9 hPa West 1.6 km/h 3.2 km/h 83% 0 mm 0 W/m2
00:10 20.7 °C 17.7 °C 1019.9 hPa West 1.6 km/h 4.8 km/h 83% 0 mm 0 W/m2
00:20 20.4 °C 17.6 °C 1019.9 hPa Calm   1.6 km/h 84% 0 mm 0 W/m2
00:30 20.3 °C 17.5 °C 1019.9 hPa Calm   1.6 km/h 84% 0 mm 0 W/m2
00:40 20.1 °C 17.5 °C 1020.2 hPa WSW 1.6 km/h 3.2 km/h 85% 0 mm 0 W/m2
00:50 19.9 °C 17.3 °C 1020.2 hPa Calm   3.2 km/h 85% 0 mm 0 W/m2
01:00 19.9 °C 17.3 °C 1019.9 hPa Calm   1.6 km/h 85% 0 mm 0 W/m2
01:10 19.6 °C 17 °C 1020.2 hPa Calm   3.2 km/h 85% 0 mm 0 W/m2
01:20 19.4 °C 17 °C 1020.2 hPa Calm   3.2 km/h 86% 0 mm 0 W/m2
01:30 19.3 °C 16.9 °C 1020.2 hPa WNW 1.6 km/h 3.2 km/h 86% 0 mm 0 W/m2
01:40 19 °C 16.6 °C 1020.2 hPa West 1.6 km/h 4.8 km/h 86% 0 mm 0 W/m2
01:50 18.9 °C 16.9 °C 1020.2 hPa West 1.6 km/h 6.4 km/h 88% 0 mm 0 W/m2
02:00 18.7 °C 16.7 °C 1020.2 hPa WSW 3.2 km/h 4.8 km/h 88% 0 mm 0 W/m2
02:10 18.5 °C 16.6 °C 1020.5 hPa West 3.2 km/h 4.8 km/h 89% 0 mm 0 W/m2
02:20 18.4 °C 16.6 °C 1020.5 hPa WSW 3.2 km/h 4.8 km/h 89% 0 mm 0 W/m2
02:30 18.3 °C 16.4 °C 1020.5 hPa West 3.2 km/h 6.4 km/h 89% 0 mm 0 W/m2
02:40 18.3 °C 16.4 °C 1020.5 hPa West 3.2 km/h 6.4 km/h 89% 0 mm 0 W/m2
02:50 18.2 °C 16.4 °C 1020.5 hPa West 3.2 km/h 4.8 km/h 89% 0 mm 0 W/m2
03:00 18.2 °C 16.3 °C 1020.5 hPa WNW 1.6 km/h 3.2 km/h 89% 0 mm 0 W/m2
03:10 18.1 °C 16.3 °C 1020.5 hPa Calm   1.6 km/h 89% 0 mm 0 W/m2
03:20 18.1 °C 16.3 °C 1020.5 hPa Calm     89% 0 mm 0 W/m2
03:30 17.8 °C 16.1 °C 1020.5 hPa Calm   3.2 km/h 90% 0 mm 0 W/m2
03:40 17.8 °C 16.1 °C 1020.5 hPa Calm     90% 0 mm 0 W/m2
03:50 17.8 °C 16.1 °C 1020.5 hPa Calm   3.2 km/h 90% 0 mm 0 W/m2
04:00 17.8 °C 16.3 °C 1020.5 hPa Calm   3.2 km/h 91% 0 mm 0 W/m2
04:10 17.6 °C 15.9 °C 1020.9 hPa Calm   1.6 km/h 90% 0 mm 0 W/m2
04:20 17.5 °C 15.8 °C 1020.9 hPa Calm   1.6 km/h 90% 0 mm 0 W/m2
04:30 17.4 °C 15.9 °C 1020.9 hPa SW 1.6 km/h 3.2 km/h 91% 0 mm 0 W/m2
04:40 17.2 °C 15.7 °C 1020.9 hPa Calm   3.2 km/h 91% 0 mm 0 W/m2
04:50 17.2 °C 15.7 °C 1021.2 hPa NNW 1.6 km/h 3.2 km/h 91% 0 mm 0 W/m2
05:00 17.1 °C 15.6 °C 1021.2 hPa Calm   3.2 km/h 91% 0 mm 4 W/m2
05:10 16.9 °C 15.4 °C 1021.2 hPa Calm   3.2 km/h 91% 0 mm 9 W/m2
05:20 16.8 °C 15.3 °C 1021.6 hPa Calm   1.6 km/h 91% 0 mm 16 W/m2
05:30 16.8 °C 15.7 °C 1021.6 hPa Calm   3.2 km/h 93% 0 mm 25 W/m2
05:40 16.9 °C 15.8 °C 1021.6 hPa Calm     93% 0 mm 36 W/m2
05:50 16.9 °C 15.8 °C 1021.6 hPa Calm   1.6 km/h 93% 0 mm 47 W/m2
06:00 16.9 °C 15.8 °C 1021.9 hPa Calm   3.2 km/h 93% 0 mm 65 W/m2
06:10 16.9 °C 15.9 °C 1021.9 hPa WNW 1.6 km/h 3.2 km/h 94% 0 mm 95 W/m2
06:20 17 °C 16 °C 1022.2 hPa Calm   1.6 km/h 94% 0 mm 118 W/m2
06:30 17.1 °C 16.1 °C 1022.2 hPa NW 1.6 km/h 3.2 km/h 94% 0 mm 140 W/m2
06:40 17.2 °C 16.2 °C 1022.2 hPa Calm   3.2 km/h 94% 0 mm 161 W/m2
06:50 17.4 °C 16.4 °C 1022.2 hPa Calm   1.6 km/h 94% 0 mm 191 W/m2
07:00 17.6 °C 16.6 °C 1022.2 hPa Calm     94% 0 mm 220 W/m2
07:10 17.8 °C 16.8 °C 1022.2 hPa Calm   3.2 km/h 94% 0 mm 255 W/m2
07:20 18.1 °C 17.2 °C 1022.2 hPa West 3.2 km/h 6.4 km/h 94% 0 mm 287 W/m2
07:30 18.5 °C 17.6 °C 1022.2 hPa NW 1.6 km/h 4.8 km/h 94% 0 mm 323 W/m2
07:40 18.9 °C 17.9 °C 1022.2 hPa West 1.6 km/h 4.8 km/h 94% 0 mm 364 W/m2
07:50 19.3 °C 18.2 °C 1022.6 hPa WSW 1.6 km/h 4.8 km/h 93% 0 mm 396 W/m2
08:00 19.7 °C 18.6 °C 1022.6 hPa NW 1.6 km/h 3.2 km/h 93% 0 mm 430 W/m2
08:10 20.2 °C 18.7 °C 1022.6 hPa South 3.2 km/h 8 km/h 91% 0 mm 460 W/m2
08:20 20.8 °C 19.3 °C 1022.2 hPa SW 1.6 km/h 6.4 km/h 91% 0 mm 505 W/m2
08:30 21.1 °C 19.4 °C 1022.2 hPa NE 3.2 km/h 8 km/h 90% 0 mm 537 W/m2
08:40 21.6 °C 19.9 °C 1022.2 hPa ENE 4.8 km/h 11.3 km/h 90% 0 mm 576 W/m2
08:50 22.2 °C 20.3 °C 1022.2 hPa NE 3.2 km/h 12.9 km/h 89% 0 mm 611 W/m2
09:00 23 °C 20.6 °C 1022.2 hPa NNE 1.6 km/h 9.7 km/h 86% 0 mm 644 W/m2
09:10 23.9 °C 21.2 °C 1022.2 hPa NNW 1.6 km/h 8 km/h 85% 0 mm 674 W/m2
09:20 24.8 °C 21.3 °C 1022.2 hPa NE 4.8 km/h 11.3 km/h 81% 0 mm 708 W/m2
09:30 25.3 °C 21.6 °C 1022.2 hPa Calm   11.3 km/h 80% 0 mm 733 W/m2
09:40 25.9 °C 22 °C 1022.2 hPa SSE 4.8 km/h 9.7 km/h 79% 0 mm 757 W/m2
09:50 26.3 °C 22.4 °C 1022.2 hPa SE 3.2 km/h 8 km/h 79% 0 mm 780 W/m2
10:00 26.8 °C 22.4 °C 1022.2 hPa Calm   8 km/h 77% 0 mm 801 W/m2
10:10 27.1 °C 22.5 °C 1022.2 hPa SW 1.6 km/h 9.7 km/h 76% 0 mm 822 W/m2
10:20 27.7 °C 22.7 °C 1021.9 hPa Calm   9.7 km/h 74% 0 mm 841 W/m2
10:30 28.2 °C 22.9 °C 1021.9 hPa NNE 4.8 km/h 11.3 km/h 73% 0 mm 860 W/m2
10:40 28.7 °C 23.2 °C 1021.9 hPa NNE 4.8 km/h 14.5 km/h 72% 0 mm 876 W/m2
10:50 29.3 °C 23.3 °C 1021.9 hPa NE 1.6 km/h 9.7 km/h 70% 0 mm 553 W/m2
11:00 29.7 °C 23.7 °C 1021.6 hPa NNE 8 km/h 9.7 km/h 70% 0 mm 906 W/m2
11:10 30.1 °C 23.5 °C 1021.6 hPa NNE 4.8 km/h 11.3 km/h 68% 0 mm 919 W/m2
11:20 30.4 °C 23.8 °C 1021.6 hPa North 3.2 km/h 11.3 km/h 68% 0 mm 267 W/m2
11:30 30.8 °C 23.7 °C 1021.6 hPa NNE 9.7 km/h 12.9 km/h 66% 0 mm 941 W/m2
11:40 31.1 °C 24.2 °C 1021.6 hPa North 3.2 km/h 12.9 km/h 67% 0 mm 950 W/m2
11:50 31.5 °C 24.2 °C 1021.6 hPa NNE 4.8 km/h 9.7 km/h 65% 0 mm 957 W/m2
12:00 31.7 °C 24.1 °C 1021.2 hPa NE 9.7 km/h 11.3 km/h 64% 0 mm 962 W/m2
12:10 32.2 °C 24.3 °C 1021.2 hPa NNE 4.8 km/h 12.9 km/h 63% 0 mm 967 W/m2
Knjazevac, Serbia
Compliments of Weather Underground - 2 mb